createdAt,value
2023-03-26T00:00:13.053Z,77.50
2023-03-26T00:03:18.725Z,78.36
2023-03-26T00:06:23.189Z,78.29
2023-03-26T00:09:26.298Z,78.09
2023-03-26T00:12:28.718Z,77.71
2023-03-26T00:15:32.347Z,77.57
2023-03-26T00:18:35.040Z,77.31
2023-03-26T00:21:38.227Z,77.84
2023-03-26T00:24:40.752Z,78.30
2023-03-26T00:27:45.904Z,76.55
2023-03-26T00:30:59.613Z,77.93
2023-03-26T00:34:04.047Z,77.80
2023-03-26T00:37:07.186Z,77.75
2023-03-26T00:40:11.219Z,75.97
2023-03-26T00:43:20.873Z,74.83
2023-03-26T00:46:25.232Z,75.62
2023-03-26T00:49:30.656Z,74.29
2023-03-26T00:52:33.701Z,74.03
2023-03-26T00:55:36.520Z,73.58
2023-03-26T00:58:39.720Z,73.58
2023-03-26T01:01:42.632Z,72.77
2023-03-26T01:04:55.764Z,72.19
2023-03-26T01:07:58.467Z,71.69
2023-03-26T01:11:07.139Z,72.05
2023-03-26T01:14:16.087Z,70.69
2023-03-26T01:17:18.916Z,72.15
2023-03-26T01:20:30.588Z,72.81
2023-03-26T01:23:43.254Z,72.34
2023-03-26T01:27:12.123Z,72.82
2023-03-26T01:30:33.816Z,72.93
2023-03-26T01:33:49.096Z,73.96
2023-03-26T01:37:27.515Z,72.46
2023-03-26T01:41:02.370Z,72.29
2023-03-26T01:44:30.796Z,74.40
2023-03-26T01:47:34.965Z,74.13
2023-03-26T01:50:37.815Z,76.14
2023-03-26T01:53:46.737Z,72.99
2023-03-26T01:57:07.706Z,69.04
2023-03-26T02:00:25.508Z,70.98
2023-03-26T02:03:32.377Z,70.62
2023-03-26T02:06:37.998Z,70.41
2023-03-26T02:09:46.082Z,71.35
2023-03-26T02:12:49.955Z,71.16
2023-03-26T02:16:01.521Z,71.94
2023-03-26T02:19:04.554Z,72.13
2023-03-26T02:22:15.990Z,73.05
2023-03-26T02:25:21.243Z,73.30
2023-03-26T02:28:26.016Z,73.77
2023-03-26T02:31:30.604Z,73.96
2023-03-26T02:34:34.070Z,74.42
2023-03-26T02:37:36.842Z,75.24
2023-03-26T02:40:48.468Z,75.03
2023-03-26T02:43:51.802Z,74.48
2023-03-26T02:46:57.551Z,74.71
2023-03-26T02:50:20.792Z,74.81
2023-03-26T02:53:43.506Z,74.56
2023-03-26T02:57:08.370Z,74.85
2023-03-26T03:00:30.628Z,75.86
2023-03-26T03:04:04.344Z,75.77
2023-03-26T03:07:16.920Z,76.23
2023-03-26T03:10:21.979Z,75.52
2023-03-26T03:13:42.468Z,75.56
2023-03-26T03:16:45.047Z,76.22
2023-03-26T03:19:48.522Z,76.46
2023-03-26T03:22:53.202Z,76.23
2023-03-26T03:25:57.783Z,77.93
2023-03-26T03:29:00.765Z,77.05
2023-03-26T03:32:04.149Z,76.89
2023-03-26T03:35:14.673Z,78.81
2023-03-26T03:38:20.842Z,79.22
2023-03-26T03:41:25.881Z,77.58
2023-03-26T03:44:28.830Z,77.94
2023-03-26T03:47:31.591Z,79.17
2023-03-26T03:50:35.827Z,78.55
2023-03-26T03:53:58.760Z,77.92
2023-03-26T03:57:23.077Z,76.30
2023-03-26T04:00:33.466Z,73.93
2023-03-26T04:03:56.836Z,73.49
2023-03-26T04:07:05.489Z,73.46
2023-03-26T04:10:30.210Z,73.81
2023-03-26T04:13:47.764Z,74.11
2023-03-26T04:17:06.169Z,74.16
2023-03-26T04:20:16.122Z,74.87
2023-03-26T04:23:22.769Z,74.52
2023-03-26T04:26:31.629Z,74.11
2023-03-26T04:29:43.415Z,74.39
2023-03-26T04:32:58.602Z,74.61
2023-03-26T04:36:03.616Z,73.78
2023-03-26T04:39:13.205Z,73.92
2023-03-26T04:42:46.541Z,73.48
2023-03-26T04:46:03.404Z,73.13
2023-03-26T04:49:10.968Z,74.26
2023-03-26T04:52:15.427Z,73.96
2023-03-26T04:55:45.597Z,73.92
2023-03-26T04:58:59.935Z,77.99
2023-03-26T05:02:05.311Z,74.56
2023-03-26T05:05:14.932Z,74.38
2023-03-26T05:08:17.790Z,74.92
2023-03-26T05:11:20.629Z,73.66
2023-03-26T05:14:24.142Z,73.86
2023-03-26T05:17:30.906Z,72.81
2023-03-26T05:20:36.240Z,71.67
2023-03-26T05:23:41.476Z,72.29
2023-03-26T05:26:56.515Z,69.83
2023-03-26T05:30:01.585Z,66.32
2023-03-26T05:33:05.776Z,66.63
2023-03-26T05:36:19.197Z,68.25
2023-03-26T05:39:35.838Z,65.49
2023-03-26T05:43:01.650Z,67.10
2023-03-26T05:46:13.653Z,66.50
2023-03-26T05:49:16.190Z,66.18
2023-03-26T05:52:19.501Z,66.65
2023-03-26T05:55:40.721Z,66.34
2023-03-26T05:59:02.417Z,65.83
2023-03-26T06:02:23.897Z,64.21
2023-03-26T06:06:10.355Z,62.32
2023-03-26T06:09:22.949Z,61.33
2023-03-26T06:12:25.717Z,60.12
2023-03-26T06:15:28.609Z,61.08
2023-03-26T06:18:37.319Z,57.78
2023-03-26T06:22:09.416Z,57.75
2023-03-26T06:25:31.997Z,59.23
2023-03-26T06:28:44.841Z,58.53
2023-03-26T06:32:19.769Z,59.32
2023-03-26T06:35:45.474Z,57.87
2023-03-26T06:38:49.407Z,55.90
2023-03-26T06:41:52.497Z,56.05
2023-03-26T06:45:30.682Z,53.52
2023-03-26T06:48:52.371Z,52.66
2023-03-26T06:52:15.673Z,50.75
2023-03-26T06:55:26.231Z,51.95
2023-03-26T06:58:40.979Z,49.08
2023-03-26T07:02:01.746Z,51.13
2023-03-26T07:05:23.221Z,50.14
2023-03-26T07:08:44.530Z,50.95
2023-03-26T07:12:06.639Z,49.69
2023-03-26T07:15:18.431Z,50.34
2023-03-26T07:18:33.137Z,49.62
2023-03-26T07:21:37.804Z,49.53
2023-03-26T07:24:50.907Z,48.91
2023-03-26T07:28:14.642Z,48.13
2023-03-26T07:31:52.390Z,47.99
2023-03-26T07:35:32.925Z,46.22
2023-03-26T07:39:15.187Z,46.03
2023-03-26T07:43:03.386Z,44.76
2023-03-26T07:46:30.373Z,44.77
2023-03-26T07:49:48.948Z,43.95
2023-03-26T07:53:04.437Z,45.78
2023-03-26T07:56:38.061Z,44.28
2023-03-26T08:00:17.860Z,43.36
2023-03-26T08:03:47.820Z,44.18
2023-03-26T08:07:47.325Z,44.53
2023-03-26T08:11:27.986Z,42.77
2023-03-26T08:14:59.689Z,42.06
2023-03-26T08:18:27.341Z,40.34
2023-03-26T08:21:42.687Z,41.28
2023-03-26T08:25:22.896Z,41.33
2023-03-26T08:28:41.891Z,39.29
2023-03-26T08:31:46.453Z,40.75
2023-03-26T08:34:49.774Z,39.28
2023-03-26T08:37:52.483Z,40.14
2023-03-26T08:41:07.626Z,39.20
2023-03-26T08:45:00.397Z,38.98
2023-03-26T08:48:19.099Z,38.28
2023-03-26T08:51:43.771Z,39.06
2023-03-26T08:54:58.461Z,37.07
2023-03-26T08:58:08.961Z,39.28
2023-03-26T09:01:36.452Z,39.35
2023-03-26T09:04:54.918Z,38.84
2023-03-26T09:08:35.863Z,37.42
2023-03-26T09:11:44.350Z,40.30
2023-03-26T09:15:04.950Z,41.34
2023-03-26T09:18:53.636Z,38.58
2023-03-26T09:22:15.702Z,37.19
2023-03-26T09:25:56.181Z,37.13
2023-03-26T09:29:41.672Z,37.21
2023-03-26T09:33:03.411Z,40.85
2023-03-26T09:36:09.160Z,40.33
2023-03-26T09:39:33.057Z,40.94
2023-03-26T09:42:45.022Z,41.00
2023-03-26T09:46:18.169Z,41.04
2023-03-26T09:49:38.791Z,41.61
2023-03-26T09:53:05.527Z,41.93
2023-03-26T09:56:23.210Z,41.95
2023-03-26T09:59:36.681Z,41.52
2023-03-26T10:02:46.529Z,39.42
2023-03-26T10:06:14.925Z,41.58
2023-03-26T10:09:26.639Z,40.63
2023-03-26T10:12:37.453Z,39.36
2023-03-26T10:16:05.554Z,38.44
2023-03-26T10:19:24.443Z,40.15
2023-03-26T10:22:44.416Z,38.57
2023-03-26T10:26:00.486Z,39.46
2023-03-26T10:29:24.594Z,41.31
2023-03-26T10:32:57.853Z,41.39
2023-03-26T10:36:21.405Z,40.81
2023-03-26T10:39:51.568Z,40.50
2023-03-26T10:43:16.826Z,39.94
2023-03-26T10:46:44.317Z,42.02
2023-03-26T10:50:05.057Z,41.02
2023-03-26T10:53:47.198Z,41.02
2023-03-26T10:56:51.947Z,41.41
2023-03-26T11:00:01.340Z,41.59
2023-03-26T11:03:16.340Z,39.90
2023-03-26T11:06:28.073Z,42.15
2023-03-26T11:09:33.404Z,41.17
2023-03-26T11:12:41.101Z,42.50
2023-03-26T11:15:57.953Z,43.91
2023-03-26T11:19:17.889Z,44.50
2023-03-26T11:22:50.332Z,43.66
2023-03-26T11:26:10.879Z,43.74
2023-03-26T11:29:37.651Z,44.01
2023-03-26T11:32:45.336Z,44.39
2023-03-26T11:35:51.517Z,46.37
2023-03-26T11:38:57.874Z,45.91
2023-03-26T11:42:11.561Z,46.85
2023-03-26T11:45:24.143Z,47.04
2023-03-26T11:48:42.349Z,46.83
2023-03-26T11:51:48.863Z,46.16
2023-03-26T11:54:51.933Z,46.60
2023-03-26T11:57:57.523Z,47.08
2023-03-26T12:01:05.064Z,46.43
2023-03-26T12:04:14.639Z,47.28
2023-03-26T12:07:17.463Z,46.71
2023-03-26T12:10:35.101Z,46.50
2023-03-26T12:13:45.019Z,46.72
2023-03-26T12:16:59.335Z,45.86
2023-03-26T12:20:23.188Z,45.86
2023-03-26T12:23:44.249Z,44.61
2023-03-26T12:26:49.226Z,45.23
2023-03-26T12:29:55.141Z,45.46
2023-03-26T12:33:16.544Z,44.41
2023-03-26T12:36:31.586Z,44.26
2023-03-26T12:40:07.882Z,44.60
2023-03-26T12:44:56.160Z,40.82
2023-03-26T12:47:58.450Z,41.33
2023-03-26T12:50:15.579Z,40.17
2023-03-26T12:53:37.898Z,40.14
2023-03-26T12:57:12.601Z,39.43
2023-03-26T13:00:34.136Z,39.75
2023-03-26T13:04:00.293Z,40.50
2023-03-26T13:07:36.335Z,42.45
2023-03-26T13:10:44.843Z,40.68
2023-03-26T13:14:21.816Z,40.80
2023-03-26T13:17:48.885Z,39.15
2023-03-26T13:21:04.937Z,38.54
2023-03-26T13:24:23.710Z,37.33
2023-03-26T13:27:45.043Z,34.91
2023-03-26T13:30:57.140Z,36.52
2023-03-26T13:34:21.341Z,37.24
2023-03-26T13:37:54.582Z,35.84
2023-03-26T13:41:33.060Z,37.26
2023-03-26T13:45:05.086Z,38.27
2023-03-26T13:48:17.559Z,36.87
2023-03-26T13:51:49.058Z,36.95
2023-03-26T13:55:40.232Z,39.59
2023-03-26T13:59:01.823Z,38.11
2023-03-26T14:02:11.896Z,40.30
2023-03-26T14:05:24.181Z,37.26
2023-03-26T14:08:36.491Z,37.59
2023-03-26T14:11:52.998Z,39.73
2023-03-26T14:15:02.332Z,38.76
2023-03-26T14:18:11.131Z,38.31
2023-03-26T14:21:34.477Z,40.41
2023-03-26T14:25:03.270Z,39.74
2023-03-26T14:28:14.843Z,40.69
2023-03-26T14:31:19.532Z,40.89
2023-03-26T14:34:54.831Z,41.30
2023-03-26T14:38:22.854Z,42.43
2023-03-26T14:41:33.744Z,44.49
2023-03-26T14:44:51.465Z,44.96
2023-03-26T14:48:14.136Z,45.05
2023-03-26T14:51:59.249Z,43.85
2023-03-26T14:55:08.254Z,45.46
2023-03-26T14:58:24.305Z,44.71
2023-03-26T15:01:29.675Z,44.60
2023-03-26T15:04:50.993Z,44.15
2023-03-26T15:08:23.928Z,43.08
2023-03-26T15:11:47.549Z,43.31
2023-03-26T15:15:05.456Z,44.00
2023-03-26T15:18:50.008Z,44.90
2023-03-26T15:22:27.346Z,44.50
2023-03-26T15:25:48.464Z,43.60
2023-03-26T15:29:30.483Z,43.12
2023-03-26T15:32:49.748Z,43.52
2023-03-26T15:35:58.656Z,44.38
2023-03-26T15:39:38.098Z,44.30
2023-03-26T15:42:49.739Z,44.58
2023-03-26T15:46:12.944Z,45.06
2023-03-26T15:49:23.438Z,45.07
2023-03-26T15:52:34.339Z,45.68
2023-03-26T15:55:59.175Z,43.74
2023-03-26T15:59:32.356Z,44.55
2023-03-26T16:02:50.373Z,45.24
2023-03-26T16:06:14.102Z,44.73
2023-03-26T16:09:32.710Z,47.52
2023-03-26T16:13:13.986Z,48.23
2023-03-26T16:16:20.929Z,49.30
2023-03-26T16:19:23.405Z,49.68
2023-03-26T16:22:43.855Z,51.15
2023-03-26T16:26:11.759Z,51.53
2023-03-26T16:29:14.702Z,52.26
2023-03-26T16:32:41.593Z,52.33
2023-03-26T16:36:05.856Z,53.80
2023-03-26T16:39:08.641Z,54.07
2023-03-26T16:42:33.302Z,54.50
2023-03-26T16:46:09.958Z,55.42
2023-03-26T16:49:24.496Z,55.06
2023-03-26T16:52:34.541Z,55.81
2023-03-26T16:55:53.409Z,57.62
2023-03-26T16:59:00.386Z,59.59
2023-03-26T17:02:14.557Z,60.39
2023-03-26T17:05:34.258Z,61.58
2023-03-26T17:08:58.681Z,60.95
2023-03-26T17:12:23.833Z,60.34
2023-03-26T17:15:32.888Z,60.24
2023-03-26T17:19:09.812Z,60.80
2023-03-26T17:22:30.303Z,61.21
2023-03-26T17:25:40.502Z,60.71
2023-03-26T17:29:04.640Z,60.74
2023-03-26T17:32:12.327Z,60.54
2023-03-26T17:35:15.881Z,60.92
2023-03-26T17:38:21.627Z,61.47
2023-03-26T17:41:51.190Z,61.94
2023-03-26T17:45:17.618Z,61.78
2023-03-26T17:48:24.065Z,61.75
2023-03-26T17:51:58.113Z,62.16
2023-03-26T17:55:02.230Z,61.40
2023-03-26T17:58:23.585Z,61.65
2023-03-26T18:01:36.254Z,61.13
2023-03-26T18:04:45.636Z,61.76
2023-03-26T18:08:02.169Z,62.98
2023-03-26T18:11:24.221Z,62.29
2023-03-26T18:14:52.882Z,60.43
2023-03-26T18:18:09.596Z,60.52
2023-03-26T18:21:21.794Z,60.57
2023-03-26T18:24:29.335Z,60.63
2023-03-26T18:27:41.063Z,60.96
2023-03-26T18:30:48.507Z,60.93
2023-03-26T18:33:59.206Z,64.47
2023-03-26T18:37:11.394Z,66.01
2023-03-26T18:40:18.555Z,67.69
2023-03-26T18:43:34.404Z,68.47
2023-03-26T18:46:38.670Z,67.69
2023-03-26T18:49:44.377Z,67.92
2023-03-26T18:52:47.130Z,67.03
2023-03-26T18:55:51.533Z,67.70
2023-03-26T18:58:58.136Z,67.10
2023-03-26T19:02:10.836Z,67.15
2023-03-26T19:05:16.912Z,66.45
2023-03-26T19:08:21.881Z,65.89
2023-03-26T19:11:26.588Z,65.68
2023-03-26T19:14:35.292Z,65.68
2023-03-26T19:18:07.061Z,66.08
2023-03-26T19:21:10.648Z,68.39
2023-03-26T19:24:15.017Z,70.12
2023-03-26T19:27:18.312Z,71.68
2023-03-26T19:30:34.070Z,68.44
2023-03-26T19:33:40.322Z,69.34
2023-03-26T19:36:58.443Z,68.48
2023-03-26T19:40:25.629Z,69.46
2023-03-26T19:43:29.574Z,68.47
2023-03-26T19:46:53.645Z,68.23
2023-03-26T19:50:03.224Z,70.14
2023-03-26T19:53:17.909Z,70.24
2023-03-26T19:56:22.250Z,71.82
2023-03-26T19:59:25.037Z,73.02
2023-03-26T20:02:28.567Z,69.96
2023-03-26T20:05:34.497Z,70.85
2023-03-26T20:08:37.630Z,70.28
2023-03-26T20:11:40.843Z,72.18
2023-03-26T20:14:45.469Z,69.22
2023-03-26T20:17:52.550Z,70.03
2023-03-26T20:20:58.023Z,69.78
2023-03-26T20:24:01.510Z,69.40
2023-03-26T20:27:04.416Z,70.31
2023-03-26T20:30:09.137Z,71.19
2023-03-26T20:33:25.646Z,72.28
2023-03-26T20:36:33.820Z,72.26
2023-03-26T20:39:39.635Z,72.52
2023-03-26T20:42:44.629Z,73.40
2023-03-26T20:45:48.598Z,73.29
2023-03-26T20:48:52.039Z,72.67
2023-03-26T20:51:55.861Z,72.07
2023-03-26T20:54:58.962Z,72.62
2023-03-26T20:58:01.778Z,72.15
2023-03-26T21:01:04.904Z,73.76
2023-03-26T21:04:08.040Z,72.93
2023-03-26T21:07:17.838Z,72.24
2023-03-26T21:10:23.165Z,72.37
2023-03-26T21:13:38.998Z,70.90
2023-03-26T21:16:42.194Z,71.46
2023-03-26T21:19:45.864Z,70.67
2023-03-26T21:23:30.582Z,70.06
2023-03-26T21:26:43.637Z,69.02
2023-03-26T21:29:47.089Z,68.70
2023-03-26T21:32:50.267Z,67.75
2023-03-26T21:35:53.833Z,67.31
2023-03-26T21:38:56.697Z,66.67
2023-03-26T21:42:04.807Z,65.83
2023-03-26T21:45:09.411Z,65.49
2023-03-26T21:48:12.835Z,65.17
2023-03-26T21:51:19.215Z,65.52
2023-03-26T21:54:24.925Z,63.90
2023-03-26T21:57:57.852Z,64.78
2023-03-26T22:01:26.285Z,64.69
2023-03-26T22:04:41.512Z,64.92
2023-03-26T22:07:56.404Z,66.20
2023-03-26T22:10:59.181Z,66.18
2023-03-26T22:14:02.968Z,66.30
2023-03-26T22:17:05.816Z,66.34
2023-03-26T22:20:13.061Z,66.43
2023-03-26T22:23:19.947Z,66.65
2023-03-26T22:26:24.100Z,66.73
2023-03-26T22:29:27.393Z,67.29
2023-03-26T22:32:32.897Z,67.79
2023-03-26T22:35:36.164Z,67.92
2023-03-26T22:38:39.750Z,67.76
2023-03-26T22:41:42.755Z,69.17
2023-03-26T22:44:45.713Z,68.58
2023-03-26T22:47:48.357Z,68.30
2023-03-26T22:51:08.355Z,68.08
2023-03-26T22:54:11.054Z,68.23
2023-03-26T22:57:13.775Z,68.36
2023-03-26T23:00:22.184Z,68.61
2023-03-26T23:03:35.079Z,68.79
2023-03-26T23:06:38.328Z,69.23
2023-03-26T23:09:41.802Z,69.52
2023-03-26T23:12:44.302Z,69.73
2023-03-26T23:15:49.179Z,69.11
2023-03-26T23:18:52.375Z,69.04
2023-03-26T23:21:55.176Z,69.01
2023-03-26T23:24:58.266Z,71.85
2023-03-26T23:28:01.083Z,73.04
2023-03-26T23:31:08.355Z,72.23
2023-03-26T23:34:13.638Z,71.30
2023-03-26T23:37:22.881Z,71.22
2023-03-26T23:40:28.309Z,70.96
2023-03-26T23:43:31.150Z,71.95
2023-03-26T23:46:34.770Z,72.69
2023-03-26T23:49:37.434Z,71.73
2023-03-26T23:52:40.236Z,70.83
2023-03-26T23:55:47.259Z,69.31
2023-03-26T23:58:50.504Z,69.97
